Time;durP1;ratioP1;P1;durP2;ratioP2;P2;SDS_P1;SDS_P2;PMS_P1;PMS_P2;Temp;Humidity;BMP_temperature;BMP_pressure;BME280_temperature;BME280_humidity;BME280_pressure;Samples;Min_cycle;Max_cycle;Signal;HPM_P1;HPM_P2
2022/11/30 00:00:11;;;;;;;21.42;15.13;;;;;;;4.92;100.00;96752.25;4998679;28;20450;-66
2022/11/30 00:02:37;;;;;;;20.95;14.40;;;;;;;4.95;100.00;96743.47;5004175;28;20042;-69
2022/11/30 00:05:03;;;;;;;22.15;14.27;;;;;;;5.05;100.00;96739.56;5001534;28;20376;-69
2022/11/30 00:07:28;;;;;;;20.50;14.25;;;;;;;5.17;100.00;96741.56;5002124;28;20188;-67
2022/11/30 00:09:54;;;;;;;20.80;14.27;;;;;;;5.27;100.00;96745.78;5001361;28;20185;-66
2022/11/30 00:12:19;;;;;;;21.27;14.48;;;;;;;5.35;100.00;96742.22;4999084;28;20034;-66
2022/11/30 00:14:45;;;;;;;20.73;13.43;;;;;;;5.40;100.00;96742.00;5004077;28;20046;-69
2022/11/30 00:17:10;;;;;;;22.58;14.35;;;;;;;5.43;100.00;96733.22;4997426;28;20057;-69
2022/11/30 00:19:35;;;;;;;22.25;14.50;;;;;;;5.45;100.00;96739.09;5012154;28;20046;-66
2022/11/30 00:22:01;;;;;;;20.20;13.55;;;;;;;5.45;100.00;96738.31;5002790;28;20038;-67
2022/11/30 00:24:26;;;;;;;20.98;13.73;;;;;;;5.45;100.00;96730.16;4998806;28;20042;-65
2022/11/30 00:26:51;;;;;;;19.83;13.68;;;;;;;5.43;100.00;96729.69;5002073;28;20184;-66
2022/11/30 00:29:17;;;;;;;19.48;14.10;;;;;;;5.41;100.00;96731.97;4999046;28;20495;-69
2022/11/30 00:31:42;;;;;;;20.08;14.00;;;;;;;5.30;100.00;96732.34;4995163;28;20415;-67
2022/11/30 00:34:08;;;;;;;19.80;14.10;;;;;;;5.26;100.00;96736.06;4999179;28;20397;-67
2022/11/30 00:36:33;;;;;;;19.83;12.95;;;;;;;5.33;100.00;96731.69;5003704;28;20107;-70
2022/11/30 00:38:59;;;;;;;17.10;11.60;;;;;;;5.32;100.00;96729.31;5002297;28;20158;-67
2022/11/30 00:41:24;;;;;;;18.88;12.00;;;;;;;5.34;100.00;96735.97;4998541;28;20068;-67
2022/11/30 00:43:49;;;;;;;18.17;11.52;;;;;;;5.34;100.00;96733.28;5003495;28;20065;-69
2022/11/30 00:46:15;;;;;;;17.75;12.65;;;;;;;5.32;100.00;96732.03;4998611;28;20065;-66
2022/11/30 00:48:40;;;;;;;16.60;11.50;;;;;;;5.33;100.00;96734.41;5003312;28;20046;-66
2022/11/30 00:51:08;;;;;;;16.83;11.70;;;;;;;5.34;100.00;96733.28;4997786;28;20042;-73
2022/11/30 00:53:33;;;;;;;17.42;11.05;;;;;;;5.29;100.00;96733.47;5003930;28;20038;-67
2022/11/30 00:55:59;;;;;;;17.30;11.65;;;;;;;5.33;100.00;96737.13;5002712;28;20053;-66
2022/11/30 00:58:24;;;;;;;19.55;11.07;;;;;;;5.36;100.00;96738.38;4998002;28;20133;-67
2022/11/30 01:00:50;;;;;;;17.85;11.27;;;;;;;5.38;100.00;96741.56;5003413;28;20507;-67
2022/11/30 01:03:15;;;;;;;14.25;10.15;;;;;;;5.28;100.00;96733.81;4997406;28;20064;-66
2022/11/30 01:05:45;;;;;;;17.88;11.70;;;;;;;5.15;100.00;96741.09;5002158;28;20380;-66
2022/11/30 01:08:11;;;;;;;14.45;11.02;;;;;;;5.15;100.00;96749.25;4998445;28;20099;-67
2022/11/30 01:10:38;;;;;;;13.98;10.48;;;;;;;5.19;100.00;96744.75;5002029;28;20048;-68
2022/11/30 01:13:03;;;;;;;16.23;11.20;;;;;;;5.24;100.00;96739.13;4999868;28;20045;-72
2022/11/30 01:15:29;;;;;;;19.58;12.38;;;;;;;5.18;100.00;96751.28;4999707;28;20057;-68
2022/11/30 01:17:58;;;;;;;15.68;12.05;;;;;;;5.07;100.00;96742.72;5009610;28;20038;-68
2022/11/30 01:20:24;;;;;;;15.13;11.50;;;;;;;4.96;100.00;96736.88;5000465;28;20417;-68
2022/11/30 01:22:49;;;;;;;15.98;11.95;;;;;;;4.91;100.00;96739.78;5003538;28;20042;-68
2022/11/30 01:25:14;;;;;;;15.50;11.82;;;;;;;4.91;100.00;96742.50;4999674;28;20038;-68
2022/11/30 01:27:40;;;;;;;15.65;11.77;;;;;;;4.88;100.00;96747.78;4990224;28;20050;-66
2022/11/30 01:30:06;;;;;;;16.58;11.65;;;;;;;4.89;100.00;96744.75;4994827;28;20034;-71
2022/11/30 01:32:32;;;;;;;15.70;11.57;;;;;;;4.90;100.00;96740.94;4994608;28;20046;-67
2022/11/30 01:34:57;;;;;;;16.42;11.65;;;;;;;5.03;100.00;96749.16;5001351;28;20099;-66
2022/11/30 01:37:22;;;;;;;15.82;11.43;;;;;;;5.08;100.00;96751.69;4998287;28;20060;-66
2022/11/30 01:39:48;;;;;;;15.05;11.32;;;;;;;5.14;100.00;96745.72;5003314;28;20050;-68
2022/11/30 01:42:16;;;;;;;13.45;10.02;;;;;;;5.18;100.00;96751.28;4998034;28;20053;-65
2022/11/30 01:44:41;;;;;;;14.32;10.55;;;;;;;4.96;100.00;96747.75;5002706;28;20079;-67
2022/11/30 01:47:11;;;;;;;16.77;11.63;;;;;;;4.84;100.00;96750.38;4996906;28;20042;-68
2022/11/30 01:49:40;;;;;;;16.15;11.38;;;;;;;4.80;100.00;96744.00;5005946;28;20064;-68
2022/11/30 01:52:24;;;;;;;19.35;12.95;;;;;;;4.79;100.00;96748.66;5002054;28;20482;-67
2022/11/30 01:55:00;;;;;;;18.85;12.05;;;;;;;4.86;100.00;96750.84;5002042;28;20069;-70
2022/11/30 01:57:33;;;;;;;18.50;12.77;;;;;;;4.86;100.00;96759.00;4996644;28;20483;-69
2022/11/30 02:00:01;;;;;;;18.90;12.80;;;;;;;4.67;100.00;96753.19;5001828;28;20135;-67
2022/11/30 02:02:40;;;;;;;21.55;14.48;;;;;;;4.66;100.00;96757.00;4995831;28;20042;-70
2022/11/30 02:05:06;;;;;;;27.33;16.92;;;;;;;4.45;100.00;96751.50;4997411;28;20053;-70
2022/11/30 02:07:32;;;;;;;27.67;16.48;;;;;;;4.45;100.00;96754.22;5001583;28;20498;-67
2022/11/30 02:09:57;;;;;;;36.60;20.88;;;;;;;4.31;100.00;96747.09;5001927;28;20046;-67
2022/11/30 02:12:38;;;;;;;34.72;19.98;;;;;;;4.31;100.00;96752.53;4997050;28;20592;-67
2022/11/30 02:15:20;;;;;;;34.67;20.45;;;;;;;4.36;100.00;96757.78;4995147;28;20487;-74
2022/11/30 02:17:55;;;;;;;40.08;21.80;;;;;;;4.30;100.00;96753.63;5001160;28;20145;-67
2022/11/30 02:20:23;;;;;;;38.67;21.65;;;;;;;4.17;100.00;96762.78;4995127;28;20447;-65
2022/11/30 02:23:07;;;;;;;45.25;22.33;;;;;;;4.20;100.00;96764.84;5001374;28;20042;-67
2022/11/30 02:25:50;;;;;;;41.92;22.55;;;;;;;4.11;100.00;96762.16;4987260;28;20053;-66
2022/11/30 02:28:18;;;;;;;43.22;24.60;;;;;;;4.14;100.00;96758.81;4996808;28;20052;-72
2022/11/30 02:30:48;;;;;;;43.53;23.48;;;;;;;4.13;100.00;96759.13;4997159;28;20065;-66
2022/11/30 02:33:19;;;;;;;46.75;24.67;;;;;;;4.13;100.00;96761.84;4991455;28;20049;-66
2022/11/30 02:35:48;;;;;;;40.55;22.38;;;;;;;4.11;100.00;96767.59;5000704;28;20589;-68
2022/11/30 02:38:14;;;;;;;43.17;22.95;;;;;;;4.10;100.00;96757.06;4997184;28;20046;-68
2022/11/30 02:40:39;;;;;;;48.20;24.52;;;;;;;4.11;100.00;96769.50;5001603;28;20050;-67
2022/11/30 02:43:06;;;;;;;46.17;24.10;;;;;;;4.12;100.00;96765.66;4994860;28;20052;-67
2022/11/30 02:45:47;;;;;;;49.15;26.17;;;;;;;4.15;100.00;96763.09;5001019;28;20049;-66
2022/11/30 02:48:16;;;;;;;47.83;25.95;;;;;;;4.11;100.00;96767.59;4997350;28;20050;-68
2022/11/30 02:50:47;;;;;;;49.42;24.98;;;;;;;4.12;100.00;96771.88;4994244;28;20488;-67
2022/11/30 02:53:12;;;;;;;42.70;24.30;;;;;;;4.14;100.00;96761.53;4977486;28;20081;-69
2022/11/30 02:55:38;;;;;;;49.17;26.05;;;;;;;4.12;100.00;96757.53;4981025;28;20431;-67
2022/11/30 02:58:04;;;;;;;51.40;27.05;;;;;;;4.10;100.00;96762.47;4977145;28;20049;-73
2022/11/30 03:00:29;;;;;;;50.53;27.25;;;;;;;4.06;100.00;96756.91;4982108;28;20043;-65
2022/11/30 03:02:55;;;;;;;49.75;25.52;;;;;;;4.08;100.00;96767.44;4981581;28;20074;-67
2022/11/30 03:05:21;;;;;;;44.33;24.50;;;;;;;4.07;100.00;96763.94;4976995;28;20634;-73
2022/11/30 03:07:46;;;;;;;51.25;26.95;;;;;;;4.06;100.00;96762.31;4980392;28;20068;-68
2022/11/30 03:10:11;;;;;;;48.50;26.13;;;;;;;4.04;100.00;96761.84;4976909;28;20074;-66
2022/11/30 03:12:37;;;;;;;49.60;25.88;;;;;;;4.03;100.00;96765.66;4983010;28;20096;-68
2022/11/30 03:15:04;;;;;;;50.55;26.55;;;;;;;4.01;100.00;96767.91;4986324;28;20046;-74
2022/11/30 03:17:29;;;;;;;51.08;26.08;;;;;;;3.99;100.00;96762.81;4982946;28;20387;-68
2022/11/30 03:19:55;;;;;;;49.78;26.77;;;;;;;3.99;100.00;96765.53;4983318;28;20042;-66
2022/11/30 03:22:20;;;;;;;50.17;26.13;;;;;;;3.99;100.00;96767.44;4981116;28;20515;-66
2022/11/30 03:24:45;;;;;;;59.92;27.35;;;;;;;3.97;100.00;96775.09;4990527;28;20065;-68
2022/11/30 03:27:11;;;;;;;55.30;27.70;;;;;;;3.95;100.00;96771.94;4998215;28;20144;-65
2022/11/30 03:29:38;;;;;;;57.25;28.30;;;;;;;3.92;100.00;96773.34;5005617;28;20045;-66
2022/11/30 03:32:03;;;;;;;53.55;27.48;;;;;;;3.92;100.00;96778.75;4999117;28;20065;-64
2022/11/30 03:34:29;;;;;;;57.75;28.80;;;;;;;3.92;100.00;96767.94;5001238;28;20041;-66
2022/11/30 03:36:55;;;;;;;54.97;27.00;;;;;;;3.92;100.00;96773.34;5001248;28;20052;-67
2022/11/30 03:39:20;;;;;;;57.25;27.40;;;;;;;3.94;100.00;96770.31;5010821;28;20053;-67
2022/11/30 03:41:45;;;;;;;57.00;29.20;;;;;;;3.91;100.00;96765.56;5012116;28;20751;-68
2022/11/30 03:44:11;;;;;;;60.45;28.92;;;;;;;3.91;100.00;96763.63;4997050;28;20069;-68
2022/11/30 03:46:36;;;;;;;54.58;27.50;;;;;;;3.92;100.00;96772.56;5002230;28;20034;-66
2022/11/30 03:49:02;;;;;;;55.10;27.35;;;;;;;3.92;100.00;96772.56;5003169;28;20045;-69
2022/11/30 03:51:28;;;;;;;53.50;27.38;;;;;;;3.90;100.00;96770.16;4985112;28;20049;-68
2022/11/30 03:53:53;;;;;;;54.20;27.10;;;;;;;3.94;100.00;96765.72;4982536;28;20435;-69
2022/11/30 03:56:19;;;;;;;53.53;27.15;;;;;;;3.93;100.00;96766.03;4978319;28;20042;-69
2022/11/30 03:58:44;;;;;;;53.33;28.42;;;;;;;3.94;100.00;96775.75;4985905;28;20065;-69
2022/11/30 04:01:11;;;;;;;54.17;27.23;;;;;;;3.94;100.00;96776.56;4990116;28;20758;-68
2022/11/30 04:03:38;;;;;;;52.80;26.95;;;;;;;3.92;100.00;96778.75;4991120;28;20518;-67
2022/11/30 04:06:04;;;;;;;51.13;25.27;;;;;;;3.91;100.00;96779.91;4999299;28;20048;-67
2022/11/30 04:08:30;;;;;;;54.72;27.65;;;;;;;3.94;100.00;96773.84;5006606;28;20042;-69
2022/11/30 04:10:57;;;;;;;52.65;26.67;;;;;;;4.02;100.00;96774.94;5015142;28;20057;-66
2022/11/30 04:13:27;;;;;;;51.85;25.77;;;;;;;3.97;100.00;96773.19;5018569;28;20097;-65
2022/11/30 04:15:54;;;;;;;51.35;26.40;;;;;;;3.97;100.00;96785.94;5022189;28;20209;-69
2022/11/30 04:18:22;;;;;;;48.83;25.10;;;;;;;3.95;100.00;96786.25;5017881;28;20066;-68
2022/11/30 04:20:52;;;;;;;48.08;25.20;;;;;;;4.03;100.00;96790.06;5023313;28;20067;-67
2022/11/30 04:23:18;;;;;;;53.05;25.42;;;;;;;3.92;100.00;96789.59;5018154;28;20038;-67
2022/11/30 04:25:43;;;;;;;47.95;24.58;;;;;;;3.91;100.00;96789.94;5020850;28;20121;-65
2022/11/30 04:28:09;;;;;;;49.03;24.02;;;;;;;3.94;100.00;96783.88;5050742;28;20113;-68
2022/11/30 04:30:36;;;;;;;46.85;23.77;;;;;;;3.89;100.00;96792.97;5021679;28;20042;-66
2022/11/30 04:33:02;;;;;;;51.88;25.13;;;;;;;3.84;100.00;96793.13;5004584;28;20046;-69
2022/11/30 04:35:27;;;;;;;43.22;21.92;;;;;;;3.85;100.00;96792.00;4991516;28;20516;-66
2022/11/30 04:37:53;;;;;;;43.55;22.83;;;;;;;3.88;100.00;96798.72;5003640;28;20042;-68
2022/11/30 04:40:18;;;;;;;44.60;22.02;;;;;;;3.86;100.00;96792.81;4999041;28;20058;-66
2022/11/30 04:42:44;;;;;;;47.05;22.92;;;;;;;3.82;100.00;96792.66;5003532;28;20042;-69
2022/11/30 04:45:10;;;;;;;43.17;21.58;;;;;;;3.79;100.00;96785.16;5007528;28;20041;-68
2022/11/30 04:47:36;;;;;;;47.22;23.20;;;;;;;3.82;100.00;96789.97;5023272;28;20056;-69
2022/11/30 04:50:01;;;;;;;48.05;22.98;;;;;;;3.76;100.00;96789.31;5022066;28;20042;-71
2022/11/30 04:52:27;;;;;;;47.72;23.40;;;;;;;3.77;100.00;96787.41;5048148;28;20037;-69
2022/11/30 04:54:52;;;;;;;43.05;20.77;;;;;;;3.73;100.00;96795.38;5021365;28;20038;-68
2022/11/30 04:57:18;;;;;;;45.70;23.70;;;;;;;3.72;100.00;96787.56;5017342;28;20038;-67
2022/11/30 04:59:43;;;;;;;45.22;21.25;;;;;;;3.73;100.00;96789.16;5022168;28;20065;-66
2022/11/30 05:02:08;;;;;;;46.80;22.92;;;;;;;3.68;100.00;96790.13;5017267;28;20029;-68
2022/11/30 05:04:34;;;;;;;45.30;22.35;;;;;;;3.68;100.00;96784.69;5018551;28;20046;-69
2022/11/30 05:07:00;;;;;;;45.17;22.48;;;;;;;3.64;100.00;96786.47;5004981;28;20125;-68
2022/11/30 05:09:26;;;;;;;47.22;22.83;;;;;;;3.60;100.00;96780.88;5002526;28;20483;-69
2022/11/30 05:11:51;;;;;;;47.80;22.05;;;;;;;3.62;100.00;96784.06;5015147;28;20076;-69
2022/11/30 05:14:16;;;;;;;47.20;23.67;;;;;;;3.56;100.00;96790.75;5016399;28;20081;-67
2022/11/30 05:16:42;;;;;;;45.47;22.38;;;;;;;3.59;100.00;96789.31;5022201;28;20046;-67
2022/11/30 05:19:07;;;;;;;42.92;21.75;;;;;;;3.51;100.00;96796.34;5018196;28;20473;-64
2022/11/30 05:21:33;;;;;;;47.92;23.75;;;;;;;3.48;100.00;96793.47;5022108;28;20034;-67
2022/11/30 05:23:58;;;;;;;49.55;22.52;;;;;;;3.43;100.00;96795.19;5010162;28;20072;-68
2022/11/30 05:26:23;;;;;;;48.65;23.25;;;;;;;3.37;100.00;96801.91;5001542;28;20038;-67
2022/11/30 05:28:49;;;;;;;46.92;21.67;;;;;;;3.37;100.00;96798.41;5009906;28;20026;-70
2022/11/30 05:31:14;;;;;;;44.55;22.08;;;;;;;3.33;100.00;96792.00;4998810;28;20037;-69
2022/11/30 05:33:40;;;;;;;48.72;23.38;;;;;;;3.31;100.00;96802.34;5003266;28;20049;-71
2022/11/30 05:36:05;;;;;;;50.75;22.60;;;;;;;3.29;100.00;96799.97;4998191;28;20053;-65
2022/11/30 05:38:31;;;;;;;52.67;23.20;;;;;;;3.22;100.00;96796.94;5004888;28;20053;-71
2022/11/30 05:41:00;;;;;;;56.03;25.02;;;;;;;3.17;100.00;96797.06;5005155;28;20048;-67
2022/11/30 05:43:26;;;;;;;51.67;24.45;;;;;;;3.12;100.00;96799.97;5000110;28;20152;-67
2022/11/30 05:45:52;;;;;;;49.38;23.40;;;;;;;3.08;100.00;96802.50;5004253;28;20154;-68
2022/11/30 05:48:17;;;;;;;54.05;25.95;;;;;;;3.00;100.00;96808.66;4997290;28;20410;-68
2022/11/30 05:50:42;;;;;;;54.92;23.98;;;;;;;2.95;100.00;96808.81;5003679;28;20130;-68
2022/11/30 05:53:08;;;;;;;50.40;23.88;;;;;;;2.90;100.00;96801.66;4998422;28;20042;-70
2022/11/30 05:55:33;;;;;;;60.42;24.52;;;;;;;2.83;100.00;96806.72;5002028;28;20069;-68
2022/11/30 05:57:59;;;;;;;56.60;25.00;;;;;;;2.85;100.00;96804.50;5005578;28;20042;-66
2022/11/30 06:00:25;;;;;;;60.53;25.77;;;;;;;2.81;100.00;96796.22;5001528;28;20140;-68
2022/11/30 06:02:57;;;;;;;58.70;27.00;;;;;;;2.79;100.00;96798.44;5004306;28;20065;-70
2022/11/30 06:05:23;;;;;;;64.35;26.88;;;;;;;2.80;100.00;96801.94;4997316;28;20065;-68
2022/11/30 06:07:48;;;;;;;62.17;27.13;;;;;;;2.79;100.00;96803.03;5003192;28;20046;-68
2022/11/30 06:10:13;;;;;;;63.30;27.88;;;;;;;2.76;100.00;96807.16;4997605;28;20553;-69
2022/11/30 06:12:39;;;;;;;67.05;27.88;;;;;;;2.80;100.00;96805.44;5000825;28;20037;-68
2022/11/30 06:15:05;;;;;;;63.08;26.92;;;;;;;2.74;100.00;96806.69;4998168;28;20490;-63
2022/11/30 06:17:30;;;;;;;64.50;28.35;;;;;;;2.68;100.00;96800.63;4999033;28;20037;-69
2022/11/30 06:19:56;;;;;;;66.90;30.15;;;;;;;2.64;100.00;96818.56;5001305;28;20117;-67
2022/11/30 06:22:21;;;;;;;63.67;27.48;;;;;;;2.61;100.00;96813.81;5005884;28;20049;-72
2022/11/30 06:24:46;;;;;;;60.45;27.35;;;;;;;2.71;100.00;96815.41;5009060;28;20045;-68
2022/11/30 06:27:12;;;;;;;56.67;26.83;;;;;;;2.71;100.00;96817.34;4995562;28;20038;-66
2022/11/30 06:29:37;;;;;;;63.50;28.05;;;;;;;2.75;100.00;96816.38;5002537;28;20041;-70
2022/11/30 06:32:06;;;;;;;64.63;28.38;;;;;;;2.70;100.00;96813.03;4992671;28;20042;-67
2022/11/30 06:34:31;;;;;;;57.40;26.60;;;;;;;2.68;100.00;96816.03;5000077;28;20072;-68
2022/11/30 06:36:57;;;;;;;63.33;27.58;;;;;;;2.61;100.00;96821.91;5000665;28;20042;-67
2022/11/30 06:39:24;;;;;;;56.35;26.42;;;;;;;2.62;100.00;96817.28;4997742;28;20401;-69
2022/11/30 06:41:49;;;;;;;63.65;28.77;;;;;;;2.57;100.00;96820.13;5000318;28;20133;-68
2022/11/30 06:44:14;;;;;;;60.00;27.15;;;;;;;2.62;100.00;96820.00;4995596;28;20038;-66
2022/11/30 06:46:40;;;;;;;57.50;25.95;;;;;;;2.68;100.00;96816.03;5009236;28;20046;-68
2022/11/30 06:49:06;;;;;;;58.50;26.88;;;;;;;2.62;100.00;96817.28;4994829;28;20041;-65
2022/11/30 06:51:32;;;;;;;59.45;27.50;;;;;;;2.53;100.00;96824.56;5003458;28;20451;-70
2022/11/30 06:53:58;;;;;;;66.05;30.58;;;;;;;2.52;100.00;96823.78;5002292;28;20038;-70
2022/11/30 06:56:23;;;;;;;55.92;26.77;;;;;;;2.56;100.00;96823.97;4992793;28;20234;-68
2022/11/30 06:58:48;;;;;;;74.63;35.55;;;;;;;2.54;100.00;96823.44;5001790;28;20136;-68
2022/11/30 07:01:14;;;;;;;66.75;31.00;;;;;;;2.53;100.00;96828.06;4996100;28;20049;-68
2022/11/30 07:03:40;;;;;;;61.83;27.20;;;;;;;2.53;100.00;96822.66;5001635;28;20534;-67
2022/11/30 07:06:08;;;;;;;63.97;30.40;;;;;;;2.66;100.00;96826.38;4994029;28;20044;-68
2022/11/30 07:08:33;;;;;;;63.15;27.55;;;;;;;2.67;100.00;96830.69;5001690;28;20072;-69
2022/11/30 07:10:59;;;;;;;50.60;25.25;;;;;;;2.70;100.00;96826.56;5001438;28;20124;-69
2022/11/30 07:13:24;;;;;;;57.20;27.73;;;;;;;2.67;100.00;96828.78;4998747;28;20066;-69
2022/11/30 07:15:49;;;;;;;54.90;25.60;;;;;;;2.68;100.00;96835.78;5002082;28;20795;-67
2022/11/30 07:18:15;;;;;;;52.67;26.60;;;;;;;2.71;100.00;96831.66;4997116;28;20387;-69
2022/11/30 07:20:41;;;;;;;50.13;24.27;;;;;;;2.75;100.00;96831.81;5002631;28;20049;-69
2022/11/30 07:26:08;;;;;;;49.38;24.38;;;;;;;2.78;100.00;96834.69;5001474;28;20970;-68
2022/11/30 07:28:41;;;;;;;48.30;23.23;;;;;;;2.99;100.00;96839.53;5001377;28;20106;-67
2022/11/30 07:31:13;;;;;;;44.72;22.08;;;;;;;3.15;100.00;96840.72;4991972;28;20038;-67
2022/11/30 07:33:39;;;;;;;41.13;20.90;;;;;;;3.27;100.00;96837.38;4996054;28;20042;-68
2022/11/30 07:36:05;;;;;;;38.55;19.73;;;;;;;3.47;100.00;96843.31;4983455;28;20109;-64
2022/11/30 07:38:30;;;;;;;42.13;20.38;;;;;;;3.64;100.00;96844.13;5003693;28;20542;-69
2022/11/30 07:40:56;;;;;;;40.17;20.23;;;;;;;3.69;100.00;96842.38;5005393;28;20037;-68
2022/11/30 07:43:22;;;;;;;37.75;19.70;;;;;;;3.93;100.00;96848.13;4999563;28;20080;-66
2022/11/30 07:45:52;;;;;;;35.80;18.40;;;;;;;3.89;100.00;96852.59;5006351;28;20037;-69
2022/11/30 07:48:18;;;;;;;34.38;18.15;;;;;;;3.93;100.00;96844.63;5001920;28;20089;-68
2022/11/30 07:50:47;;;;;;;38.75;19.58;;;;;;;3.83;100.00;96848.44;5007009;28;20382;-70
2022/11/30 07:53:13;;;;;;;35.05;18.13;;;;;;;3.90;100.00;96853.38;5005554;28;20042;-67
2022/11/30 07:55:39;;;;;;;81.50;38.70;;;;;;;3.88;100.00;96847.50;5011440;28;20046;-69
2022/11/30 07:58:04;;;;;;;37.10;19.73;;;;;;;3.87;100.00;96848.59;5001797;28;20466;-64
2022/11/30 08:00:29;;;;;;;34.92;19.48;;;;;;;3.83;100.00;96849.25;5006384;28;20033;-67
2022/11/30 08:02:55;;;;;;;32.53;19.40;;;;;;;4.01;100.00;96844.59;5007866;28;20072;-70
2022/11/30 08:05:22;;;;;;;29.40;16.17;;;;;;;4.04;100.00;96848.59;5001273;28;20510;-66
2022/11/30 08:07:51;;;;;;;26.77;15.60;;;;;;;4.13;100.00;96852.09;5009863;28;20046;-67
2022/11/30 08:10:18;;;;;;;27.63;15.18;;;;;;;4.04;100.00;96853.22;5002734;28;20042;-70
2022/11/30 08:12:43;;;;;;;31.10;17.27;;;;;;;4.02;100.00;96853.53;5007073;28;20137;-66
2022/11/30 08:15:09;;;;;;;26.30;14.82;;;;;;;3.91;100.00;96855.78;5001122;28;20432;-68
2022/11/30 08:17:35;;;;;;;26.27;14.15;;;;;;;3.73;100.00;96857.69;5005178;28;20049;-68
2022/11/30 08:20:00;;;;;;;30.15;15.60;;;;;;;3.49;100.00;96858.13;5007093;28;20042;-67
2022/11/30 08:22:26;;;;;;;24.48;14.05;;;;;;;3.64;100.00;96865.00;5001390;28;20980;-67
2022/11/30 08:24:51;;;;;;;35.08;18.67;;;;;;;3.71;100.00;96867.22;5007466;28;20048;-68
2022/11/30 08:27:16;;;;;;;28.30;15.30;;;;;;;3.99;100.00;96857.66;5002326;28;20042;-69
2022/11/30 08:29:42;;;;;;;23.90;13.38;;;;;;;4.14;100.00;96859.13;5006271;28;20057;-67
2022/11/30 08:32:07;;;;;;;20.55;11.95;;;;;;;4.19;100.00;96860.84;4998553;28;20125;-69
2022/11/30 08:34:33;;;;;;;30.63;17.58;;;;;;;4.30;100.00;96856.69;5007568;28;20045;-67
2022/11/30 08:36:58;;;;;;;27.75;15.57;;;;;;;4.22;100.00;96852.06;5006022;28;20064;-67
2022/11/30 08:39:26;;;;;;;25.30;14.75;;;;;;;4.07;100.00;96857.97;5006171;28;20379;-68
2022/11/30 08:41:52;;;;;;;33.28;17.15;;;;;;;4.25;100.00;96862.28;5011240;28;20042;-67
2022/11/30 08:44:18;;;;;;;23.65;12.82;;;;;;;4.34;100.00;96859.53;5003302;28;20049;-68
2022/11/30 08:46:43;;;;;;;33.78;21.10;;;;;;;4.18;100.00;96856.56;5004378;28;20034;-69
2022/11/30 08:49:09;;;;;;;33.10;17.08;;;;;;;4.28;100.00;96867.06;5001096;28;20048;-65
2022/11/30 08:51:34;;;;;;;39.35;20.95;;;;;;;4.16;100.00;96862.28;5005178;28;20049;-68
2022/11/30 08:54:00;;;;;;;21.10;12.60;;;;;;;4.06;100.00;96872.66;5007347;28;20402;-68
2022/11/30 08:56:25;;;;;;;24.88;14.77;;;;;;;4.16;100.00;96867.72;5000339;28;20038;-67
2022/11/30 08:58:51;;;;;;;26.92;15.57;;;;;;;4.19;100.00;96869.75;5002973;28;20050;-68
2022/11/30 09:01:24;;;;;;;24.05;13.90;;;;;;;4.00;100.00;96872.03;5000183;28;20076;-67
2022/11/30 09:03:55;;;;;;;26.67;14.15;;;;;;;3.99;100.00;96873.94;4998741;28;20045;-68
2022/11/30 09:06:26;;;;;;;30.90;17.48;;;;;;;3.92;100.00;96868.19;5001581;28;20041;-67
2022/11/30 09:08:54;;;;;;;28.27;15.15;;;;;;;4.13;100.00;96881.13;4991974;28;20149;-68
2022/11/30 09:11:26;;;;;;;24.02;13.80;;;;;;;4.07;100.00;96875.06;4982472;28;20042;-68
2022/11/30 09:13:54;;;;;;;25.38;13.73;;;;;;;4.00;100.00;96880.97;4987143;28;20053;-67
2022/11/30 09:16:21;;;;;;;27.92;13.38;;;;;;;3.78;100.00;96886.50;4981749;28;20046;-67
2022/11/30 09:18:47;;;;;;;24.50;13.57;;;;;;;3.88;100.00;96878.09;4987533;28;20038;-69
2022/11/30 09:21:16;;;;;;;31.38;14.93;;;;;;;3.84;100.00;96871.72;4982991;28;20506;-68
2022/11/30 09:23:42;;;;;;;22.03;12.63;;;;;;;3.92;100.00;96878.25;4991829;28;20053;-69
2022/11/30 09:26:10;;;;;;;27.38;13.32;;;;;;;4.01;100.00;96879.81;4990991;28;20499;-66
2022/11/30 09:28:36;;;;;;;26.40;13.70;;;;;;;3.90;100.00;96880.47;4988304;28;20162;-68
2022/11/30 09:31:05;;;;;;;28.80;13.75;;;;;;;4.01;100.00;96884.44;4986301;28;20466;-64
2022/11/30 09:33:31;;;;;;;29.08;15.23;;;;;;;4.09;100.00;96878.25;5006532;28;20045;-68
2022/11/30 09:36:02;;;;;;;26.67;13.82;;;;;;;4.17;100.00;96882.84;5004450;28;20046;-69
2022/11/30 09:38:28;;;;;;;31.17;15.65;;;;;;;4.19;100.00;96880.59;5003193;28;20041;-70
2022/11/30 09:40:56;;;;;;;28.20;15.25;;;;;;;4.06;100.00;96876.16;5007327;28;20042;-68
2022/11/30 09:43:46;;;;;;;26.20;13.57;;;;;;;4.28;100.00;96877.09;5001654;28;20575;-69
2022/11/30 09:46:12;;;;;;;23.05;12.45;;;;;;;4.67;100.00;96878.78;4993840;28;20047;-70
2022/11/30 09:48:43;;;;;;;26.83;14.40;;;;;;;4.49;100.00;96882.66;5005688;28;20044;-68
2022/11/30 09:51:33;;;;;;;24.42;13.95;;;;;;;4.59;100.00;96890.44;5002527;28;20050;-69
2022/11/30 09:54:07;;;;;;;26.30;13.77;;;;;;;4.47;100.00;96885.69;5005975;28;20128;-69
2022/11/30 09:56:37;;;;;;;28.02;15.55;;;;;;;4.10;100.00;96892.59;5005670;28;20057;-69
2022/11/30 09:59:20;;;;;;;35.25;17.20;;;;;;;4.31;100.00;96887.31;5003416;28;20045;-64
2022/11/30 10:01:47;;;;;;;29.40;15.45;;;;;;;4.17;100.00;96890.19;5006182;28;20034;-70
2022/11/30 10:04:27;;;;;;;32.20;15.40;;;;;;;4.23;100.00;96886.19;5004770;28;20042;-68
2022/11/30 10:07:22;;;;;;;28.45;15.68;;;;;;;4.33;100.00;96891.28;5009390;28;20034;-68
2022/11/30 10:10:02;;;;;;;32.08;16.15;;;;;;;3.94;100.00;96887.66;5000054;28;20322;-70
2022/11/30 10:12:38;;;;;;;42.30;20.58;;;;;;;3.76;100.00;96889.56;4990650;28;20046;-68
2022/11/30 10:15:41;;;;;;;38.83;19.67;;;;;;;3.67;100.00;96893.38;4986499;28;20046;-64
2022/11/30 10:18:09;;;;;;;35.28;17.75;;;;;;;3.71;100.00;96887.00;4982963;28;20097;-65
2022/11/30 10:20:50;;;;;;;28.70;15.50;;;;;;;3.58;100.00;96880.63;4986220;28;20046;-67
2022/11/30 10:23:18;;;;;;;26.10;12.27;;;;;;;3.61;100.00;96890.00;4980766;28;20472;-66
2022/11/30 10:26:00;;;;;;;28.05;13.93;;;;;;;3.70;100.00;96871.84;4984128;28;20573;-68
2022/11/30 10:28:49;;;;;;;22.17;11.00;;;;;;;3.72;100.00;96874.25;4983513;28;20050;-68
2022/11/30 10:31:15;;;;;;;21.00;10.37;;;;;;;3.70;100.00;96871.84;4976503;28;20143;-68
2022/11/30 10:33:53;;;;;;;21.50;11.88;;;;;;;3.49;100.00;96865.47;4985678;28;20050;-66
2022/11/30 10:36:24;;;;;;;24.25;12.50;;;;;;;3.35;100.00;96879.94;4981478;28;20368;-68
2022/11/30 10:39:01;;;;;;;23.70;11.45;;;;;;;3.40;100.00;96876.25;4994291;28;20034;-67
2022/11/30 10:41:55;;;;;;;26.02;12.80;;;;;;;3.28;100.00;96879.59;4985314;28;20042;-67
2022/11/30 10:44:27;;;;;;;27.92;13.07;;;;;;;3.34;100.00;96875.63;4980239;28;20508;-68
2022/11/30 10:47:16;;;;;;;26.10;12.45;;;;;;;3.40;100.00;96878.97;4985688;28;20070;-68
2022/11/30 10:49:47;;;;;;;24.42;12.48;;;;;;;3.28;100.00;96879.59;5004416;28;20506;-67
2022/11/30 10:52:17;;;;;;;28.10;12.95;;;;;;;3.24;100.00;96870.50;4998490;28;20157;-69
2022/11/30 10:54:43;;;;;;;29.10;13.75;;;;;;;3.21;100.00;96874.63;5005889;28;20136;-69
2022/11/30 10:57:08;;;;;;;25.80;12.75;;;;;;;3.27;100.00;96877.19;5001210;28;20058;-70
2022/11/30 10:59:48;;;;;;;24.95;12.20;;;;;;;3.15;100.00;96881.31;5006151;28;20115;-67
2022/11/30 11:02:33;;;;;;;;;;;;;;;3.16;100.00;96874.78;5004231;28;20072;-66
2022/11/30 11:05:37;;;;;;;26.85;13.27;;;;;;;3.23;100.00;96877.81;5003578;28;20345;-70
2022/11/30 11:08:18;;;;;;;26.23;12.93;;;;;;;3.13;100.00;96872.69;5008913;28;20056;-66
2022/11/30 11:10:51;;;;;;;36.70;18.98;;;;;;;3.18;100.00;96869.84;5026825;28;20049;-68
2022/11/30 11:13:41;;;;;;;22.55;12.90;;;;;;;3.13;100.00;96875.41;5012287;28;20049;-68
2022/11/30 11:16:11;;;;;;;24.38;12.98;;;;;;;3.30;100.00;96873.88;5006878;28;20092;-66
2022/11/30 11:18:54;;;;;;;22.10;11.50;;;;;;;3.40;100.00;96879.78;5010217;28;20053;-69
2022/11/30 11:21:21;;;;;;;19.90;11.73;;;;;;;3.39;100.00;96883.59;5005802;28;20424;-69
2022/11/30 11:23:50;;;;;;;21.33;12.02;;;;;;;3.25;100.00;96881.00;5011902;28;20073;-68